Time;durP1;ratioP1;P1;durP2;ratioP2;P2;SDS_P1;SDS_P2;PMS_P1;PMS_P2;Temp;Humidity;BMP_temperature;BMP_pressure;BME280_temperature;BME280_humidity;BME280_pressure;Samples;Min_cycle;Max_cycle;Signal;HPM_P1;HPM_P2
2022/05/30 00:00:13;;;;;;;1.65;1.50;;;22.00;49.40;;;;;;5092746;28;20478;-63
2022/05/30 00:02:39;;;;;;;2.60;1.45;;;22.00;49.40;;;;;;5092658;28;20408;-65
2022/05/30 00:05:05;;;;;;;1.88;1.50;;;22.00;49.40;;;;;;5092749;28;20860;-65
2022/05/30 00:07:31;;;;;;;2.10;1.63;;;22.00;49.40;;;;;;5092602;28;20862;-65
2022/05/30 00:09:56;;;;;;;3.07;1.47;;;22.00;49.30;;;;;;5092780;28;20419;-65
2022/05/30 00:12:22;;;;;;;2.30;1.63;;;22.00;49.40;;;;;;5091906;28;20443;-65
2022/05/30 00:14:48;;;;;;;1.93;1.50;;;22.00;49.40;;;;;;5092297;28;20447;-65
2022/05/30 00:17:13;;;;;;;2.05;1.52;;;22.00;49.40;;;;;;5092695;28;20431;-65
2022/05/30 00:19:39;;;;;;;1.90;1.47;;;22.00;49.40;;;;;;5092499;28;20398;-65
2022/05/30 00:22:06;;;;;;;1.58;1.48;;;21.90;49.30;;;;;;5092659;28;20866;-65
2022/05/30 00:24:33;;;;;;;1.55;1.27;;;21.90;49.30;;;;;;5091594;28;20447;-65
2022/05/30 00:26:59;;;;;;;2.33;1.40;;;21.90;49.30;;;;;;5092447;28;20420;-65
2022/05/30 00:29:25;;;;;;;1.65;1.40;;;21.90;49.30;;;;;;5092428;28;20740;-65
2022/05/30 00:31:51;;;;;;;1.50;1.40;;;21.90;49.40;;;;;;5092296;28;20785;-65
2022/05/30 00:34:20;;;;;;;2.00;1.50;;;21.90;49.30;;;;;;5092274;28;20382;-64
2022/05/30 00:36:45;;;;;;;2.70;1.40;;;21.90;49.40;;;;;;5092088;28;20433;-65
2022/05/30 00:39:11;;;;;;;2.90;1.63;;;21.90;49.80;;;;;;5092304;28;20378;-65
2022/05/30 00:41:37;;;;;;;1.90;1.50;;;21.90;49.30;;;;;;5092182;28;20833;-65
2022/05/30 00:44:03;;;;;;;2.83;1.70;;;21.90;49.30;;;;;;5092066;28;20405;-65
2022/05/30 00:46:29;;;;;;;2.08;1.30;;;21.90;49.20;;;;;;5091718;28;20386;-64
2022/05/30 00:49:05;;;;;;;1.60;1.42;;;21.90;49.30;;;;;;5090616;28;20390;-65
2022/05/30 00:51:41;;;;;;;1.70;1.40;;;21.80;49.30;;;;;;5090518;28;20816;-65
2022/05/30 00:54:10;;;;;;;1.92;1.58;;;21.90;49.30;;;;;;5091985;28;20527;-65
2022/05/30 00:56:45;;;;;;;1.80;1.20;;;21.90;49.30;;;;;;5091377;28;20436;-65
2022/05/30 00:59:12;;;;;;;1.80;1.50;;;21.90;49.30;;;;;;5091915;28;20385;-65
2022/05/30 01:01:38;;;;;;;2.40;1.40;;;21.80;49.30;;;;;;5091827;28;20453;-65
2022/05/30 01:06:53;;;;;;;2.70;1.60;;;21.80;49.20;;;;;;5091857;28;20401;-65
2022/05/30 01:09:44;;;;;;;1.50;1.40;;;21.90;49.30;;;;;;5090436;28;20393;-65
2022/05/30 01:12:12;;;;;;;1.73;1.50;;;21.80;49.30;;;;;;5091539;28;20370;-65
2022/05/30 01:14:40;;;;;;;1.40;1.20;;;21.80;49.30;;;;;;5089875;28;20728;-64
2022/05/30 01:17:13;;;;;;;1.70;1.30;;;21.80;49.30;;;;;;5091692;28;20385;-65
2022/05/30 01:20:05;;;;;;;1.70;1.40;;;21.80;49.30;;;;;;5091580;28;20746;-65
2022/05/30 01:22:38;;;;;;;1.90;1.20;;;21.80;49.20;;;;;;5091190;28;20754;-64
2022/05/30 01:25:34;;;;;;;2.80;1.40;;;21.80;49.20;;;;;;5091617;28;20410;-65
2022/05/30 01:28:26;;;;;;;3.17;1.10;;;21.80;49.30;;;;;;5091066;28;20923;-65
2022/05/30 01:30:52;;;;;;;2.30;1.40;;;21.80;49.30;;;;;;5091392;28;20378;-65
2022/05/30 01:33:18;;;;;;;1.83;1.25;;;21.80;49.30;;;;;;5090290;28;20386;-65
2022/05/30 01:35:43;;;;;;;1.73;1.40;;;21.80;49.20;;;;;;5091643;28;20457;-64
2022/05/30 01:38:09;;;;;;;1.85;1.20;;;21.80;49.20;;;;;;5094447;28;20417;-65
2022/05/30 01:40:35;;;;;;;2.57;1.40;;;21.80;49.30;;;;;;5095193;28;20851;-65
2022/05/30 01:43:01;;;;;;;1.88;1.25;;;21.80;49.80;;;;;;5095553;28;20394;-64
2022/05/30 01:45:27;;;;;;;1.92;1.40;;;21.80;49.30;;;;;;5095532;28;20909;-65
2022/05/30 01:47:53;;;;;;;2.42;1.30;;;21.80;49.20;;;;;;5095449;28;20402;-65
2022/05/30 01:50:24;;;;;;;2.15;1.30;;;21.80;49.30;;;;;;5095268;28;20420;-63
2022/05/30 01:52:50;;;;;;;2.05;1.40;;;21.80;49.30;;;;;;5095039;28;20451;-65
2022/05/30 01:55:16;;;;;;;2.20;1.23;;;21.70;49.10;;;;;;5094120;28;20461;-64
2022/05/30 01:57:41;;;;;;;2.40;1.30;;;21.70;49.10;;;;;;5095315;28;20397;-65
2022/05/30 02:00:13;;;;;;;2.33;1.57;;;21.70;49.20;;;;;;5095317;28;20485;-65
2022/05/30 02:02:38;;;;;;;2.20;1.02;;;21.70;49.20;;;;;;5094776;28;20409;-64
2022/05/30 02:05:06;;;;;;;1.65;1.38;;;21.70;49.10;;;;;;5095106;28;20902;-65
2022/05/30 02:07:32;;;;;;;1.83;1.30;;;21.70;49.20;;;;;;5095033;28;20446;-65
2022/05/30 02:09:57;;;;;;;2.40;1.30;;;21.70;49.20;;;;;;5095078;28;20936;-65
2022/05/30 02:12:23;;;;;;;2.30;1.27;;;21.70;49.20;;;;;;5094566;28;20389;-65
2022/05/30 02:14:49;;;;;;;3.35;1.38;;;21.70;49.20;;;;;;5094481;28;20392;-65
2022/05/30 02:17:14;;;;;;;2.30;1.30;;;21.70;49.10;;;;;;5095014;28;20500;-65
2022/05/30 02:19:43;;;;;;;1.85;1.10;;;21.70;49.20;;;;;;5094887;28;20394;-65
2022/05/30 02:22:20;;;;;;;2.10;1.30;;;21.70;49.20;;;;;;5094830;28;20374;-64
2022/05/30 02:24:50;;;;;;;2.17;1.33;;;21.70;49.20;;;;;;5094465;28;21307;-65
2022/05/30 02:27:17;;;;;;;1.42;1.25;;;21.70;49.00;;;;;;5094777;28;20915;-65
2022/05/30 02:29:44;;;;;;;1.33;1.20;;;21.70;49.00;;;;;;5093407;28;20398;-65
2022/05/30 02:32:10;;;;;;;3.75;1.55;;;21.70;49.10;;;;;;5094753;28;20448;-64
2022/05/30 02:37:21;;;;;;;2.15;1.35;;;21.70;49.10;;;;;;5094651;28;20421;-64
2022/05/30 02:39:46;;;;;;;2.88;1.33;;;21.60;48.90;;;;;;5094553;28;20401;-64
2022/05/30 02:42:13;;;;;;;2.10;1.40;;;21.70;49.20;;;;;;5093164;28;20386;-64
2022/05/30 02:44:39;;;;;;;2.70;1.50;;;21.60;49.10;;;;;;5093285;28;20484;-64
2022/05/30 02:47:05;;;;;;;2.35;1.33;;;21.60;49.00;;;;;;5094323;28;20378;-65
2022/05/30 02:49:31;;;;;;;2.53;1.40;;;21.60;49.10;;;;;;5094366;28;20512;-64
2022/05/30 02:51:57;;;;;;;3.60;1.43;;;21.60;49.00;;;;;;5094134;28;20398;-65
2022/05/30 02:54:24;;;;;;;2.60;1.40;;;21.60;49.00;;;;;;5094140;28;20473;-64
2022/05/30 02:56:51;;;;;;;2.20;1.40;;;21.60;49.00;;;;;;5093858;28;20435;-64
2022/05/30 02:59:20;;;;;;;1.70;1.30;;;21.60;49.00;;;;;;5092238;28;21351;-65
2022/05/30 03:01:46;;;;;;;1.88;1.50;;;21.60;49.00;;;;;;5094060;28;20390;-64
2022/05/30 03:04:12;;;;;;;2.17;1.25;;;21.60;48.90;;;;;;5094020;28;20401;-65
2022/05/30 03:06:38;;;;;;;2.50;1.20;;;21.60;49.30;;;;;;5093574;28;20874;-64
2022/05/30 03:09:05;;;;;;;5.55;1.45;;;21.60;49.70;;;;;;5093875;28;20415;-65
2022/05/30 03:11:31;;;;;;;3.67;1.40;;;21.70;50.00;;;;;;5094351;28;20409;-64
2022/05/30 03:13:57;;;;;;;4.05;1.40;;;21.80;50.10;;;;;;5094769;28;20389;-65
2022/05/30 03:16:23;;;;;;;4.60;2.47;;;21.80;50.30;;;;;;5094452;28;20394;-64
2022/05/30 03:18:48;;;;;;;5.63;2.53;;;21.80;51.30;;;;;;5093458;28;20409;-64
2022/05/30 03:21:14;;;;;;;4.53;2.50;;;21.90;50.80;;;;;;5094336;28;20386;-65
2022/05/30 03:23:40;;;;;;;9.52;2.35;;;21.80;51.90;;;;;;5093649;28;20733;-65
2022/05/30 03:26:06;;;;;;;9.70;2.40;;;21.90;51.70;;;;;;5093750;28;20390;-65
2022/05/30 03:28:33;;;;;;;7.25;1.98;;;21.90;51.40;;;;;;5093288;28;20429;-64
2022/05/30 03:31:00;;;;;;;7.32;1.98;;;22.00;51.80;;;;;;5094077;28;20400;-64
2022/05/30 03:33:25;;;;;;;9.52;2.30;;;22.00;51.90;;;;;;5102858;28;20847;-64
2022/05/30 03:35:52;;;;;;;6.70;2.00;;;22.00;51.80;;;;;;5097938;28;20393;-65
2022/05/30 03:38:18;;;;;;;6.55;1.95;;;22.10;51.60;;;;;;5093425;28;20382;-64
2022/05/30 03:40:44;;;;;;;4.57;1.90;;;22.10;51.90;;;;;;5092385;28;20512;-64
2022/05/30 03:43:11;;;;;;;3.95;1.88;;;22.10;51.70;;;;;;5093234;28;20936;-64
2022/05/30 03:45:41;;;;;;;5.18;1.98;;;22.10;51.60;;;;;;5093713;28;20456;-65
2022/05/30 03:48:09;;;;;;;6.35;1.80;;;22.10;52.10;;;;;;5084428;28;20426;-64
2022/05/30 03:50:37;;;;;;;8.30;2.00;;;22.20;52.20;;;;;;5092683;28;20440;-64
2022/05/30 03:53:05;;;;;;;6.45;1.98;;;22.20;51.90;;;;;;5079954;28;20422;-63
2022/05/30 03:55:37;;;;;;;9.43;2.03;;;22.20;52.40;;;;;;5072964;28;20423;-64
2022/05/30 03:58:04;;;;;;;4.78;1.80;;;22.30;51.80;;;;;;5073431;28;20427;-64
2022/05/30 04:00:31;;;;;;;4.03;1.67;;;22.20;51.00;;;;;;5071739;28;20387;-64
2022/05/30 04:02:58;;;;;;;5.50;1.83;;;22.10;51.00;;;;;;5072133;28;20415;-65
2022/05/30 04:05:24;;;;;;;5.05;1.50;;;22.10;51.00;;;;;;5072386;28;20411;-64
2022/05/30 04:07:50;;;;;;;4.30;1.58;;;22.10;51.00;;;;;;5072455;28;20380;-64
2022/05/30 04:10:16;;;;;;;6.10;1.70;;;22.00;50.80;;;;;;5071086;28;20929;-65
2022/05/30 04:12:42;;;;;;;5.15;1.70;;;22.00;50.90;;;;;;5071137;28;20388;-65
2022/05/30 04:15:10;;;;;;;9.57;1.80;;;22.00;50.50;;;;;;5071133;28;20400;-64
2022/05/30 04:17:37;;;;;;;9.32;1.90;;;22.00;51.20;;;;;;5072405;28;20413;-65
2022/05/30 04:20:06;;;;;;;10.30;2.03;;;22.00;51.10;;;;;;5072342;28;20396;-64
2022/05/30 04:22:33;;;;;;;5.07;1.75;;;22.00;51.10;;;;;;5071826;28;20422;-64
2022/05/30 04:24:58;;;;;;;7.05;1.70;;;21.90;50.80;;;;;;5071988;28;20420;-64
2022/05/30 04:27:24;;;;;;;4.97;1.70;;;21.90;50.60;;;;;;5072249;28;20764;-64
2022/05/30 04:29:50;;;;;;;4.97;1.50;;;21.90;49.80;;;;;;5072210;28;20395;-64
2022/05/30 04:32:18;;;;;;;3.20;1.80;;;21.80;48.20;;;;;;5072241;28;20581;-64
2022/05/30 04:34:45;;;;;;;3.45;1.60;;;21.70;46.90;;;;;;5071637;28;20392;-64
2022/05/30 04:37:11;;;;;;;3.20;1.60;;;21.70;45.70;;;;;;5070682;28;20395;-63
2022/05/30 04:39:37;;;;;;;3.15;1.40;;;21.60;46.00;;;;;;5071899;28;20775;-64
2022/05/30 04:42:04;;;;;;;2.90;1.80;;;21.60;45.10;;;;;;5071810;28;20755;-63
2022/05/30 04:44:31;;;;;;;4.73;1.73;;;21.50;44.50;;;;;;5072427;28;20454;-64
2022/05/30 04:46:58;;;;;;;2.45;1.40;;;21.50;44.60;;;;;;5070381;28;20491;-64
2022/05/30 04:49:24;;;;;;;2.90;1.70;;;21.40;45.00;;;;;;5071981;28;20429;-64
2022/05/30 04:51:51;;;;;;;4.20;1.60;;;21.40;46.00;;;;;;5070272;28;20521;-64
2022/05/30 04:54:18;;;;;;;5.35;1.73;;;21.50;45.60;;;;;;5071849;28;20407;-64
2022/05/30 04:56:44;;;;;;;4.32;2.20;;;21.50;45.50;;;;;;5071035;28;20886;-64
2022/05/30 04:59:10;;;;;;;3.15;1.65;;;21.40;45.30;;;;;;5070314;28;20884;-64
2022/05/30 05:01:37;;;;;;;3.05;1.90;;;21.40;44.90;;;;;;5071584;28;20396;-64
2022/05/30 05:04:04;;;;;;;4.57;2.10;;;21.40;45.00;;;;;;5071683;28;20767;-65
2022/05/30 05:06:30;;;;;;;3.80;2.00;;;21.30;45.40;;;;;;5071294;28;20399;-64
2022/05/30 05:09:15;;;;;;;5.00;3.00;;;21.30;45.70;;;;;;5071363;28;20445;-64
2022/05/30 05:11:41;;;;;;;6.13;4.00;;;21.30;47.50;;;;;;5070658;28;20433;-64
2022/05/30 05:14:07;;;;;;;5.88;3.10;;;21.30;48.80;;;;;;5071471;28;20384;-64
2022/05/30 05:16:33;;;;;;;4.47;2.63;;;21.40;48.20;;;;;;5071379;28;20792;-64
2022/05/30 05:19:00;;;;;;;6.38;2.90;;;21.40;47.90;;;;;;5088688;28;20476;-64
2022/05/30 05:21:31;;;;;;;4.20;2.53;;;21.50;48.30;;;;;;5091308;28;20863;-64
2022/05/30 05:23:59;;;;;;;4.68;2.30;;;21.50;48.30;;;;;;5089921;28;20432;-65
2022/05/30 05:26:25;;;;;;;4.38;2.40;;;21.50;48.40;;;;;;5090511;28;20450;-64
2022/05/30 05:28:51;;;;;;;4.70;2.30;;;21.50;48.50;;;;;;5089930;28;20390;-64
2022/05/30 05:31:25;;;;;;;3.38;2.03;;;21.50;48.70;;;;;;5090613;28;20489;-63
2022/05/30 05:33:52;;;;;;;3.88;2.00;;;21.50;48.40;;;;;;5094868;28;20848;-64
2022/05/30 05:36:28;;;;;;;3.80;1.90;;;21.50;48.80;;;;;;5092116;28;20433;-64
2022/05/30 05:38:54;;;;;;;3.03;2.08;;;21.50;48.80;;;;;;5089381;28;20427;-64
2022/05/30 05:41:21;;;;;;;4.28;2.03;;;21.50;49.00;;;;;;5090166;28;20957;-64
2022/05/30 05:43:47;;;;;;;5.10;2.20;;;21.50;49.00;;;;;;5091039;28;20516;-64
2022/05/30 05:46:19;;;;;;;4.68;2.10;;;21.50;48.90;;;;;;5091064;28;20401;-64
2022/05/30 05:48:45;;;;;;;3.80;2.28;;;21.40;48.90;;;;;;5090516;28;20398;-64
2022/05/30 05:51:13;;;;;;;4.13;2.15;;;21.40;48.60;;;;;;5091043;28;20390;-64
2022/05/30 05:53:41;;;;;;;5.65;2.33;;;21.40;48.60;;;;;;5090716;28;20517;-64
2022/05/30 05:56:11;;;;;;;7.15;2.72;;;21.40;48.50;;;;;;5091133;28;20468;-64
2022/05/30 05:58:36;;;;;;;4.22;2.50;;;21.40;48.60;;;;;;5105246;28;20384;-64
2022/05/30 06:01:15;;;;;;;5.73;2.53;;;21.40;48.60;;;;;;5110968;28;20384;-64
2022/05/30 06:03:41;;;;;;;6.13;2.67;;;21.40;48.60;;;;;;5111220;28;20388;-64
2022/05/30 06:06:07;;;;;;;5.30;2.13;;;21.50;48.60;;;;;;5110066;28;20417;-64
2022/05/30 06:08:34;;;;;;;6.27;2.37;;;21.50;48.60;;;;;;5111026;28;20385;-64
2022/05/30 06:11:05;;;;;;;5.03;2.53;;;21.50;48.50;;;;;;5110953;28;20495;-64
2022/05/30 06:13:32;;;;;;;4.38;2.25;;;21.50;48.50;;;;;;5111199;28;20852;-65
2022/05/30 06:15:58;;;;;;;3.55;2.30;;;21.50;48.40;;;;;;5111146;28;20388;-65
2022/05/30 06:18:24;;;;;;;3.25;2.15;;;21.60;48.40;;;;;;5111193;28;20414;-64
2022/05/30 06:20:56;;;;;;;3.78;2.15;;;21.60;48.50;;;;;;5110458;28;20430;-64
2022/05/30 06:23:22;;;;;;;3.97;2.30;;;21.60;48.40;;;;;;5112622;28;20475;-64
2022/05/30 06:25:47;;;;;;;5.20;2.10;;;21.60;48.50;;;;;;5114672;28;20972;-64
2022/05/30 06:28:13;;;;;;;4.37;2.10;;;21.60;48.50;;;;;;5114550;28;20384;-65
2022/05/30 06:30:38;;;;;;;3.33;1.92;;;21.60;48.50;;;;;;5114490;28;20392;-65
2022/05/30 06:33:04;;;;;;;3.67;1.90;;;21.60;48.50;;;;;;5114692;28;20381;-64
2022/05/30 06:35:30;;;;;;;3.10;1.90;;;21.60;48.50;;;;;;5114686;28;20394;-65
2022/05/30 06:37:55;;;;;;;3.47;2.00;;;21.60;48.50;;;;;;5114898;28;20381;-65
2022/05/30 06:40:21;;;;;;;2.80;1.77;;;21.60;48.50;;;;;;5114764;28;20396;-65
2022/05/30 06:42:47;;;;;;;3.25;2.22;;;21.60;48.50;;;;;;5112942;28;20384;-64
2022/05/30 06:45:12;;;;;;;3.10;1.83;;;21.60;48.50;;;;;;5114664;28;20416;-65
2022/05/30 06:47:38;;;;;;;2.25;1.70;;;21.60;48.50;;;;;;5113186;28;20775;-65
2022/05/30 06:50:04;;;;;;;2.88;1.90;;;21.70;48.50;;;;;;5114562;28;20381;-64
2022/05/30 06:52:30;;;;;;;2.50;1.50;;;21.60;48.50;;;;;;5114381;28;20491;-65
2022/05/30 06:54:56;;;;;;;2.67;1.80;;;21.60;48.40;;;;;;5114130;28;20821;-64
2022/05/30 07:00:07;;;;;;;2.83;1.60;;;21.60;48.50;;;;;;5114779;28;20741;-64
2022/05/30 07:02:33;;;;;;;3.00;1.60;;;21.60;48.50;;;;;;5114102;28;20956;-63
2022/05/30 07:04:59;;;;;;;2.60;1.70;;;21.60;48.50;;;;;;5113690;28;20412;-64
2022/05/30 07:07:25;;;;;;;2.60;1.65;;;21.70;48.60;;;;;;5114187;28;20407;-64
2022/05/30 07:09:50;;;;;;;2.40;1.60;;;21.60;48.50;;;;;;5112341;28;20710;-64
2022/05/30 07:12:16;;;;;;;2.50;1.60;;;21.70;48.50;;;;;;5093220;28;20394;-65
2022/05/30 07:14:41;;;;;;;2.97;1.67;;;21.60;48.50;;;;;;5092700;28;20386;-65
2022/05/30 07:17:11;;;;;;;2.13;1.42;;;21.70;48.50;;;;;;5093420;28;20382;-64
2022/05/30 07:19:36;;;;;;;3.53;1.60;;;21.70;48.50;;;;;;5093492;28;20390;-65
2022/05/30 07:22:03;;;;;;;2.23;1.47;;;21.70;48.50;;;;;;5094024;28;20407;-65
2022/05/30 07:24:29;;;;;;;3.05;1.48;;;21.70;48.50;;;;;;5093290;28;20432;-65
2022/05/30 07:26:55;;;;;;;2.17;1.30;;;21.70;48.50;;;;;;5093002;28;21239;-64
2022/05/30 07:29:21;;;;;;;1.97;1.40;;;21.70;48.50;;;;;;5093419;28;20382;-65
2022/05/30 07:31:46;;;;;;;2.67;1.65;;;21.70;48.40;;;;;;5093247;28;20468;-64
2022/05/30 07:34:12;;;;;;;1.77;1.50;;;21.70;48.40;;;;;;5092349;28;20386;-65
2022/05/30 07:36:38;;;;;;;1.90;1.33;;;21.70;48.40;;;;;;5093058;28;20746;-65
2022/05/30 07:39:04;;;;;;;2.07;1.53;;;21.80;48.40;;;;;;5105793;28;20415;-65
2022/05/30 07:41:31;;;;;;;2.07;1.53;;;21.80;49.10;;;;;;5113602;28;20411;-64
2022/05/30 07:43:57;;;;;;;1.80;1.50;;;21.80;48.40;;;;;;5093961;28;20428;-65
2022/05/30 07:46:23;;;;;;;3.30;1.80;;;21.80;48.40;;;;;;5102522;28;20433;-64
2022/05/30 07:48:49;;;;;;;18.98;11.57;;;21.80;48.60;;;;;;5102712;28;20897;-64
2022/05/30 07:51:15;;;;;;;7.93;5.75;;;21.80;52.70;;;;;;5093064;28;20787;-64
2022/05/30 07:53:43;;;;;;;3.78;3.00;;;21.80;52.80;;;;;;5092575;28;20398;-65
2022/05/30 07:56:15;;;;;;;6.13;2.60;;;21.80;50.80;;;;;;5091679;28;20386;-65
2022/05/30 07:58:40;;;;;;;3.53;2.55;;;21.90;50.70;;;;;;5092601;28;20393;-65
2022/05/30 08:01:12;;;;;;;2.97;2.20;;;21.90;50.30;;;;;;5092658;28;20374;-65
2022/05/30 08:03:38;;;;;;;4.07;2.10;;;22.00;50.20;;;;;;5092649;28;20712;-65
2022/05/30 08:06:13;;;;;;;2.17;1.90;;;22.00;49.90;;;;;;5091151;28;20439;-64
2022/05/30 08:08:40;;;;;;;3.05;2.10;;;22.00;49.90;;;;;;5091083;28;20420;-64
2022/05/30 08:11:06;;;;;;;2.28;1.85;;;22.00;49.80;;;;;;5092444;28;20484;-64
2022/05/30 08:13:32;;;;;;;1.97;1.70;;;22.00;49.70;;;;;;5091001;28;20851;-64
2022/05/30 08:15:58;;;;;;;2.70;1.67;;;21.90;49.40;;;;;;5092317;28;20393;-64
2022/05/30 08:18:24;;;;;;;2.15;1.58;;;22.00;49.30;;;;;;5092217;28;20431;-65
2022/05/30 08:20:49;;;;;;;2.20;1.30;;;22.00;49.20;;;;;;5090903;28;20398;-65
2022/05/30 08:23:17;;;;;;;2.17;1.50;;;22.00;49.20;;;;;;5092465;28;20476;-65
2022/05/30 08:25:43;;;;;;;2.20;1.50;;;22.00;49.10;;;;;;5091898;28;20475;-65
2022/05/30 08:28:10;;;;;;;2.33;1.60;;;22.00;49.00;;;;;;5092347;28;20410;-65
2022/05/30 08:30:35;;;;;;;1.83;1.23;;;22.00;48.90;;;;;;5091828;28;20422;-65
2022/05/30 08:33:01;;;;;;;2.50;1.80;;;22.00;48.90;;;;;;5091894;28;20817;-64
2022/05/30 08:35:27;;;;;;;1.77;1.40;;;22.00;48.80;;;;;;5090833;28;20467;-64
2022/05/30 08:37:57;;;;;;;1.70;1.30;;;22.00;48.70;;;;;;5092018;28;20461;-65
2022/05/30 08:43:23;;;;;;;2.10;1.45;;;22.00;48.60;;;;;;5091846;28;20389;-64
2022/05/30 08:45:49;;;;;;;2.17;1.60;;;22.00;48.50;;;;;;5091252;28;20494;-65
2022/05/30 08:48:41;;;;;;;2.07;1.40;;;22.00;48.40;;;;;;5091453;28;20386;-64
2022/05/30 08:51:21;;;;;;;1.92;1.40;;;22.00;48.50;;;;;;5089951;28;20374;-64
2022/05/30 08:53:53;;;;;;;1.63;1.50;;;22.00;48.40;;;;;;5091396;28;20432;-64
2022/05/30 08:56:39;;;;;;;1.67;1.35;;;22.00;48.30;;;;;;5091604;28;20386;-64
2022/05/30 08:59:14;;;;;;;1.77;1.45;;;22.00;48.30;;;;;;5091484;28;20435;-64
2022/05/30 09:01:45;;;;;;;1.90;1.40;;;21.90;48.20;;;;;;5091517;28;20384;-64
2022/05/30 09:04:39;;;;;;;1.55;1.45;;;22.00;48.20;;;;;;5091403;28;20770;-65
2022/05/30 09:07:29;;;;;;;1.75;1.50;;;22.00;48.10;;;;;;5091362;28;20381;-64
2022/05/30 09:10:04;;;;;;;1.67;1.52;;;22.00;48.10;;;;;;5090906;28;20506;-64
2022/05/30 09:12:48;;;;;;;1.90;1.60;;;22.00;48.00;;;;;;5092884;28;20403;-65
2022/05/30 09:15:34;;;;;;;1.65;1.40;;;22.00;48.00;;;;;;5095237;28;20887;-64
2022/05/30 09:18:00;;;;;;;2.00;1.40;;;22.00;48.00;;;;;;5099734;28;20413;-64
2022/05/30 09:20:28;;;;;;;1.77;1.40;;;22.00;48.00;;;;;;5104384;28;20424;-64
2022/05/30 09:22:54;;;;;;;1.73;1.40;;;21.90;47.90;;;;;;5094108;28;20851;-64
2022/05/30 09:28:16;;;;;;;1.58;1.30;;;22.00;47.90;;;;;;5104216;28;20414;-64
2022/05/30 09:30:49;;;;;;;1.90;1.50;;;21.90;47.90;;;;;;5100695;28;20384;-64
2022/05/30 09:33:34;;;;;;;1.65;1.30;;;22.00;47.80;;;;;;5079148;28;20737;-64
2022/05/30 09:36:34;;;;;;;1.50;1.27;;;22.00;47.90;;;;;;5100852;28;20432;-64
2022/05/30 09:39:04;;;;;;;1.83;1.58;;;22.00;47.80;;;;;;5058970;28;20878;-64
2022/05/30 09:41:39;;;;;;;1.40;1.30;;;22.00;47.90;;;;;;5110980;27;20447;-64
2022/05/30 09:44:25;;;;;;;1.73;1.20;;;22.00;47.90;;;;;;5095267;28;20382;-64
2022/05/30 09:46:50;;;;;;;1.55;1.20;;;22.00;47.90;;;;;;5087766;28;20434;-64
2022/05/30 09:49:38;;;;;;;1.70;1.33;;;21.90;47.80;;;;;;5099151;28;20918;-63
2022/05/30 09:52:33;;;;;;;1.38;1.25;;;22.00;47.90;;;;;;5105240;28;20475;-64
2022/05/30 09:55:01;;;;;;;1.38;1.20;;;22.00;47.90;;;;;;5104895;28;20413;-64
2022/05/30 09:57:43;;;;;;;2.00;1.60;;;22.00;47.90;;;;;;5092165;28;20488;-65
2022/05/30 10:00:17;;;;;;;2.10;1.38;;;22.00;47.90;;;;;;5096059;28;20405;-65
2022/05/30 10:02:45;;;;;;;1.98;1.45;;;22.00;47.90;;;;;;5097742;28;20482;-65
2022/05/30 10:05:20;;;;;;;4.55;1.92;;;22.00;48.00;;;;;;5095090;28;20423;-65
2022/05/30 10:08:17;;;;;;;4.78;1.73;;;22.10;48.70;;;;;;5102943;28;20389;-65
2022/05/30 10:10:49;;;;;;;2.40;1.60;;;22.10;48.60;;;;;;5100513;28;20405;-66
2022/05/30 10:13:34;;;;;;;2.72;1.50;;;22.10;48.70;;;;;;5102547;28;20481;-64
2022/05/30 10:16:01;;;;;;;2.40;1.50;;;22.20;48.70;;;;;;5100154;28;20398;-65
2022/05/30 10:18:53;;;;;;;2.97;1.50;;;22.20;48.60;;;;;;5096006;28;20398;-65
2022/05/30 10:21:22;;;;;;;3.22;1.50;;;22.20;48.60;;;;;;5093021;28;20417;-65
2022/05/30 10:30:02;;;;;;;5.00;1.40;;;22.20;48.30;;;;;;5090833;28;20409;-65
2022/05/30 10:32:40;;;;;;;6.10;3.80;;;22.20;48.30;;;;;;5093255;28;20393;-65
2022/05/30 10:35:28;;;;;;;6.05;4.10;;;22.20;49.90;;;;;;5090280;28;20389;-65
2022/05/30 10:38:26;;;;;;;5.22;2.90;;;22.20;50.20;;;;;;5093006;28;20394;-65
2022/05/30 10:41:01;;;;;;;4.75;2.67;;;22.30;49.30;;;;;;5093607;28;20485;-65
2022/05/30 10:43:46;;;;;;;4.82;2.63;;;22.30;49.80;;;;;;5094043;28;20393;-64
2022/05/30 10:46:42;;;;;;;5.18;2.40;;;22.20;49.60;;;;;;5092874;28;20770;-65
2022/05/30 10:49:13;;;;;;;4.70;1.98;;;22.20;49.40;;;;;;5085834;28;20426;-65
2022/05/30 10:51:49;;;;;;;3.60;1.92;;;22.20;49.10;;;;;;5092847;28;20386;-64
2022/05/30 10:54:21;;;;;;;3.88;1.85;;;22.20;49.40;;;;;;5093005;28;20427;-64
2022/05/30 10:56:50;;;;;;;2.60;1.90;;;22.20;49.10;;;;;;5092513;28;20943;-64
2022/05/30 10:59:37;;;;;;;3.00;1.88;;;22.20;49.10;;;;;;5094105;28;20473;-64
2022/05/30 11:02:29;;;;;;;1.95;1.60;;;22.20;48.70;;;;;;5093982;28;20390;-64
2022/05/30 11:05:06;;;;;;;1.90;1.60;;;22.20;48.90;;;;;;5082986;28;20414;-65
2022/05/30 11:08:05;;;;;;;2.13;1.70;;;22.20;48.70;;;;;;5093860;28;20382;-64
2022/05/30 11:10:38;;;;;;;2.50;1.80;;;22.20;48.50;;;;;;5092877;28;20376;-64
2022/05/30 11:13:34;;;;;;;3.28;1.70;;;22.20;48.30;;;;;;5093451;28;20447;-64
2022/05/30 11:16:06;;;;;;;2.13;1.60;;;22.30;48.40;;;;;;5093705;28;20385;-65
2022/05/30 11:18:49;;;;;;;2.40;1.50;;;22.30;48.30;;;;;;5093599;28;20488;-65
2022/05/30 11:21:37;;;;;;;2.00;1.45;;;22.30;48.30;;;;;;5093775;28;20818;-65
2022/05/30 11:24:04;;;;;;;2.47;1.50;;;22.20;48.00;;;;;;5093331;28;20397;-64
2022/05/30 11:26:43;;;;;;;2.30;1.70;;;22.30;48.20;;;;;;5092126;28;20439;-66
2022/05/30 11:29:42;;;;;;;2.50;1.67;;;22.30;48.20;;;;;;5093170;28;20869;-65
2022/05/30 11:32:21;;;;;;;2.83;1.40;;;22.30;48.20;;;;;;5093508;28;20897;-65
2022/05/30 11:35:26;;;;;;;2.13;1.38;;;22.30;48.10;;;;;;5093366;28;20378;-65
2022/05/30 11:38:15;;;;;;;2.45;1.70;;;22.30;48.00;;;;;;5093088;28;20381;-65
2022/05/30 11:41:05;;;;;;;2.35;1.55;;;22.30;48.00;;;;;;5091739;28;20459;-65
2022/05/30 11:43:55;;;;;;;1.80;1.30;;;22.30;48.00;;;;;;5091695;28;20878;-64
2022/05/30 11:46:43;;;;;;;1.88;1.35;;;22.30;48.00;;;;;;5091700;28;20774;-65
2022/05/30 11:49:19;;;;;;;1.85;1.52;;;22.30;47.90;;;;;;5091343;28;20386;-64
2022/05/30 11:51:48;;;;;;;2.42;1.50;;;22.30;47.90;;;;;;5090540;28;20398;-65
2022/05/30 11:54:57;;;;;;;1.92;1.55;;;22.30;47.80;;;;;;5092920;28;20398;-65
2022/05/30 11:57:40;;;;;;;2.60;1.50;;;22.30;47.60;;;;;;5081688;28;20386;-64
2022/05/30 12:00:10;;;;;;;2.40;1.58;;;22.30;47.60;;;;;;5093030;28;20390;-64
2022/05/30 12:02:58;;;;;;;1.88;1.67;;;22.30;47.50;;;;;;5092626;28;20398;-64
2022/05/30 12:06:11;;;;;;;2.03;1.40;;;22.30;47.60;;;;;;5092420;28;20406;-64
2022/05/30 12:09:06;;;;;;;1.60;1.50;;;22.30;47.70;;;;;;5072983;28;20389;-65
2022/05/30 12:12:07;;;;;;;2.00;1.60;;;22.30;47.60;;;;;;5091727;28;20386;-65
2022/05/30 12:14:56;;;;;;;2.08;1.75;;;22.30;47.50;;;;;;5092040;28;20447;-65
2022/05/30 12:23:47;;;;;;;1.50;1.40;;;22.30;47.50;;;;;;5092261;28;20405;-65
2022/05/30 12:24:00;;;;;;;1.98;1.50;;;22.30;47.40;;;;;;5063023;28;20430;-64
2022/05/30 12:26:59;;;;;;;2.00;1.80;;;22.30;47.40;;;;;;5098172;28;20457;-65
2022/05/30 12:29:31;;;;;;;1.80;1.52;;;22.30;47.20;;;;;;5112135;28;20384;-65
2022/05/30 12:32:32;;;;;;;1.65;1.55;;;22.30;47.30;;;;;;5093376;28;20947;-65
2022/05/30 12:35:01;;;;;;;1.67;1.50;;;22.30;47.10;;;;;;5092030;28;20481;-65
2022/05/30 12:37:44;;;;;;;2.17;1.70;;;22.30;47.20;;;;;;5091388;28;20413;-64
2022/05/30 12:40:19;;;;;;;2.10;1.50;;;22.30;47.20;;;;;;5073988;28;20456;-65
2022/05/30 12:42:45;;;;;;;2.00;1.35;;;22.30;47.20;;;;;;5092055;28;20393;-65
2022/05/30 12:45:20;;;;;;;2.20;1.60;;;22.30;47.20;;;;;;5091504;28;20491;-65
2022/05/30 12:47:55;;;;;;;2.10;1.50;;;22.30;47.40;;;;;;5091106;28;20465;-65
2022/05/30 12:50:31;;;;;;;1.67;1.50;;;22.30;47.40;;;;;;5071785;28;20756;-64
2022/05/30 12:53:01;;;;;;;1.63;1.52;;;22.30;47.40;;;;;;5078019;28;20413;-65
2022/05/30 12:55:40;;;;;;;1.50;1.40;;;22.30;47.20;;;;;;5088901;28;20390;-65
2022/05/30 12:58:11;;;;;;;1.70;1.52;;;22.30;47.20;;;;;;5089085;28;20375;-65
2022/05/30 13:00:51;;;;;;;1.90;1.60;;;22.30;47.20;;;;;;5091787;28;20482;-65
2022/05/30 13:03:29;;;;;;;2.33;1.80;;;22.30;47.30;;;;;;5089910;28;20870;-64
2022/05/30 13:06:16;;;;;;;1.80;1.50;;;22.30;47.20;;;;;;5090139;28;20418;-64
2022/05/30 13:08:58;;;;;;;1.80;1.50;;;22.30;47.40;;;;;;5091753;28;20821;-65
2022/05/30 13:11:37;;;;;;;1.95;1.60;;;22.20;47.30;;;;;;5091330;28;20415;-65
2022/05/30 13:14:09;;;;;;;1.77;1.67;;;22.20;47.10;;;;;;5091579;28;20458;-64
2022/05/30 13:16:40;;;;;;;1.70;1.50;;;22.30;47.20;;;;;;5091482;28;20485;-65
2022/05/30 13:19:11;;;;;;;1.70;1.60;;;22.30;47.30;;;;;;5091323;28;20397;-64
2022/05/30 13:21:40;;;;;;;1.95;1.40;;;22.30;47.30;;;;;;5091670;28;20465;-64
2022/05/30 13:24:32;;;;;;;2.10;1.70;;;22.30;47.50;;;;;;5091193;28;20937;-64
2022/05/30 13:26:59;;;;;;;1.83;1.50;;;22.30;47.70;;;;;;5100107;28;20905;-64
2022/05/30 13:29:38;;;;;;;2.92;1.80;;;22.30;47.60;;;;;;5103883;28;20931;-64
2022/05/30 13:32:13;;;;;;;4.78;1.70;;;22.20;47.60;;;;;;5087231;28;20406;-65